Time;durP1;ratioP1;P1;durP2;ratioP2;P2;SDS_P1;SDS_P2;PMS_P1;PMS_P2;Temp;Humidity;BMP_temperature;BMP_pressure;BME280_temperature;BME280_humidity;BME280_pressure;Samples;Min_cycle;Max_cycle;Signal;HPM_P1;HPM_P2
2021/05/23 00:01:28;;;;;;;1.88;0.60;;;;;;;10.91;69.11;96823.47;4977269;28;20421;-82
2021/05/23 00:03:54;;;;;;;3.28;0.80;;;;;;;10.88;69.46;96818.78;4972867;28;20079;-82
2021/05/23 00:06:19;;;;;;;0.80;0.60;;;;;;;10.87;69.18;96812.00;4993551;28;20102;-81
2021/05/23 00:08:45;;;;;;;1.45;0.70;;;;;;;10.95;68.81;96818.53;5010276;28;20055;-82
2021/05/23 00:11:10;;;;;;;2.17;0.80;;;;;;;10.92;68.99;96814.63;4974165;28;20026;-82
2021/05/23 00:13:42;;;;;;;0.80;0.68;;;;;;;10.82;69.15;96819.81;5009699;28;20041;-82
2021/05/23 00:16:14;;;;;;;1.65;0.70;;;;;;;10.80;69.02;96814.06;4993564;28;20499;-82
2021/05/23 00:18:41;;;;;;;2.25;0.70;;;;;;;10.74;69.24;96808.03;4993353;28;20036;-83
2021/05/23 00:21:08;;;;;;;1.23;0.57;;;;;;;10.87;68.59;96822.44;4977387;28;20033;-83
2021/05/23 00:23:34;;;;;;;2.05;0.73;;;;;;;10.83;68.91;96805.72;4970644;28;20096;-83
2021/05/23 00:26:00;;;;;;;1.40;0.82;;;;;;;10.81;68.96;96813.00;4995075;28;20121;-82
2021/05/23 00:28:25;;;;;;;1.45;1.00;;;;;;;10.86;68.67;96815.63;4976865;28;20095;-82
2021/05/23 00:30:51;;;;;;;0.90;0.73;;;;;;;10.81;68.98;96813.00;4978022;28;20033;-82
2021/05/23 00:33:16;;;;;;;2.00;0.50;;;;;;;10.65;68.99;96802.53;4977666;28;20037;-82
2021/05/23 00:35:42;;;;;;;1.75;0.50;;;;;;;10.84;68.66;96815.13;4993808;28;20412;-81
2021/05/23 00:38:09;;;;;;;3.42;0.70;;;;;;;10.64;68.36;96814.00;4976072;28;20057;-82
2021/05/23 00:40:36;;;;;;;1.05;0.60;;;;;;;10.60;68.68;96812.16;5010136;28;20084;-82
2021/05/23 00:43:02;;;;;;;1.00;0.60;;;;;;;10.71;68.36;96823.38;4993335;28;20041;-83
2021/05/23 00:45:28;;;;;;;3.17;1.05;;;;;;;10.61;68.47;96819.72;4977583;28;20075;-82
2021/05/23 00:47:54;;;;;;;1.50;0.47;;;;;;;10.63;68.61;96824.66;4982305;28;20493;-82
2021/05/23 00:50:24;;;;;;;1.95;0.80;;;;;;;10.43;68.58;96820.91;4992949;28;20033;-83
2021/05/23 00:52:50;;;;;;;1.83;0.63;;;;;;;10.51;68.99;96817.06;5009954;28;20507;-81
2021/05/23 00:55:16;;;;;;;1.75;0.57;;;;;;;10.57;68.53;96817.84;4987785;28;20057;-83
2021/05/23 00:57:41;;;;;;;0.98;0.55;;;;;;;10.55;68.19;96820.72;4990020;28;20388;-84
2021/05/23 01:00:08;;;;;;;1.27;0.68;;;;;;;10.52;68.14;96823.84;4965431;28;20119;-81
2021/05/23 01:02:47;;;;;;;3.15;0.47;;;;;;;10.41;68.41;96830.00;5002295;28;20036;-82
2021/05/23 01:05:19;;;;;;;1.83;0.50;;;;;;;10.46;68.97;96832.66;4993683;28;20479;-81
2021/05/23 01:07:45;;;;;;;3.33;1.27;;;;;;;10.61;68.70;96832.72;4995031;28;20068;-82
2021/05/23 01:10:17;;;;;;;1.73;0.52;;;;;;;10.46;68.80;96825.59;4997158;28;20041;-82
2021/05/23 01:12:58;;;;;;;2.10;0.57;;;;;;;10.42;69.33;96834.19;4980945;28;20087;-83
2021/05/23 01:15:39;;;;;;;2.45;0.50;;;;;;;10.38;68.81;96825.31;5007978;28;20029;-83
2021/05/23 01:18:20;;;;;;;2.78;0.50;;;;;;;10.33;69.12;96833.06;4990268;28;20026;-83
2021/05/23 01:20:58;;;;;;;0.68;0.45;;;;;;;10.50;68.55;96844.09;4980997;28;20025;-84
2021/05/23 01:23:26;;;;;;;0.73;0.50;;;;;;;10.31;68.80;96843.69;4980842;28;20041;-84
2021/05/23 01:25:55;;;;;;;0.90;0.47;;;;;;;10.38;68.22;96846.13;5013497;28;20048;-84
2021/05/23 01:28:21;;;;;;;1.45;0.47;;;;;;;10.24;68.50;96825.69;4996668;28;20037;-83
2021/05/23 01:30:49;;;;;;;2.90;0.52;;;;;;;10.19;68.71;96838.69;4977288;28;20080;-83
2021/05/23 01:33:17;;;;;;;1.73;0.60;;;;;;;10.20;68.60;96832.44;4996187;28;20040;-83
2021/05/23 01:35:50;;;;;;;0.88;0.50;;;;;;;10.17;68.31;96840.75;4996695;28;20037;-83
2021/05/23 01:38:17;;;;;;;0.80;0.50;;;;;;;10.19;68.76;96846.47;4980989;28;20026;-84
2021/05/23 01:40:44;;;;;;;0.55;0.30;;;;;;;10.18;68.32;96842.31;4996915;28;20030;-84
2021/05/23 01:43:10;;;;;;;1.17;0.50;;;;;;;10.06;68.36;96852.13;4996766;28;20101;-84
2021/05/23 01:45:36;;;;;;;1.60;0.50;;;;;;;10.06;68.90;96858.09;4980824;28;20038;-82
2021/05/23 01:48:04;;;;;;;1.45;0.50;;;;;;;9.99;68.93;96843.72;4996440;28;20037;-82
2021/05/23 01:50:30;;;;;;;1.35;0.30;;;;;;;10.07;68.51;96856.28;5009490;28;20033;-84
2021/05/23 01:52:59;;;;;;;1.35;0.80;;;;;;;9.90;68.42;96865.00;4996430;28;20068;-84
2021/05/23 01:55:25;;;;;;;2.97;0.50;;;;;;;9.94;68.81;96862.69;4981417;28;20504;-82
2021/05/23 01:57:51;;;;;;;0.50;0.50;;;;;;;9.93;69.07;96864.50;4997126;28;20104;-83
2021/05/23 02:00:21;;;;;;;2.28;0.80;;;;;;;9.72;69.32;96870.56;5012725;28;20116;-83
2021/05/23 02:02:48;;;;;;;1.67;0.40;;;;;;;9.84;68.90;96873.78;4996588;28;20029;-84
2021/05/23 02:05:15;;;;;;;0.80;0.50;;;;;;;9.75;69.12;96859.66;4980212;28;20026;-84
2021/05/23 02:07:44;;;;;;;0.90;0.40;;;;;;;9.86;69.18;96881.34;4979896;28;20029;-83
2021/05/23 02:10:13;;;;;;;1.50;0.73;;;;;;;9.78;69.01;96866.97;4980775;28;20029;-83
2021/05/23 02:12:41;;;;;;;1.83;0.60;;;;;;;9.91;69.15;96887.38;4996468;28;20026;-84
2021/05/23 02:15:08;;;;;;;2.35;0.60;;;;;;;9.85;69.53;96882.34;4976555;28;20053;-83
2021/05/23 02:17:36;;;;;;;1.67;0.50;;;;;;;9.86;69.92;96892.53;5012310;28;20029;-82
2021/05/23 02:20:04;;;;;;;1.25;0.50;;;;;;;9.93;69.70;96902.72;4995436;28;20036;-82
2021/05/23 02:22:31;;;;;;;1.55;0.70;;;;;;;9.99;69.69;96891.34;4978335;28;20045;-82
2021/05/23 02:24:57;;;;;;;1.35;0.43;;;;;;;9.97;69.36;96877.78;5044463;28;20543;-83
2021/05/23 02:27:23;;;;;;;1.90;0.40;;;;;;;10.07;69.50;96893.47;4976979;28;20396;-83
2021/05/23 02:29:49;;;;;;;1.17;0.65;;;;;;;10.07;69.35;96896.06;4978206;28;20037;-83
2021/05/23 02:32:16;;;;;;;2.47;0.60;;;;;;;10.00;69.65;96892.13;4977965;28;20478;-83
2021/05/23 02:34:47;;;;;;;1.83;0.60;;;;;;;9.98;69.42;96891.59;4979936;28;20033;-83
2021/05/23 02:37:13;;;;;;;1.15;0.60;;;;;;;10.00;69.30;96881.72;4995508;28;20063;-83
2021/05/23 02:39:39;;;;;;;1.15;0.60;;;;;;;9.85;69.19;96885.78;4995685;28;20036;-81
2021/05/23 02:42:05;;;;;;;1.88;0.73;;;;;;;10.03;69.10;96895.00;4979882;28;20021;-83
2021/05/23 02:44:31;;;;;;;2.17;1.05;;;;;;;10.09;68.97;96901.03;4995914;28;20060;-83
2021/05/23 02:46:57;;;;;;;1.65;0.60;;;;;;;9.95;69.55;96903.25;5011625;28;20033;-83
2021/05/23 02:49:23;;;;;;;1.73;0.60;;;;;;;9.93;69.69;96898.28;4979096;28;20120;-82
2021/05/23 02:51:49;;;;;;;1.80;0.60;;;;;;;10.07;69.36;96913.50;4982709;28;20184;-82
2021/05/23 02:54:15;;;;;;;2.17;0.60;;;;;;;9.99;69.92;96906.94;4989457;28;20029;-83
2021/05/23 02:56:41;;;;;;;1.20;0.40;;;;;;;10.00;69.95;96910.31;4988113;28;20036;-83
2021/05/23 02:59:07;;;;;;;1.60;0.60;;;;;;;10.04;69.65;96919.19;4995764;28;20522;-83
2021/05/23 03:01:33;;;;;;;1.70;0.40;;;;;;;10.06;69.18;96917.16;5010400;28;20029;-83
2021/05/23 03:03:59;;;;;;;2.75;0.50;;;;;;;10.12;69.75;96926.56;4978189;28;20528;-83
2021/05/23 03:06:25;;;;;;;2.03;0.75;;;;;;;10.06;69.22;96917.94;4978661;28;20033;-84
2021/05/23 03:08:52;;;;;;;1.73;0.43;;;;;;;10.00;69.25;96912.94;5011500;28;20120;-81
2021/05/23 03:11:18;;;;;;;2.17;0.60;;;;;;;9.97;69.64;96929.03;4976678;28;20025;-82
2021/05/23 03:13:44;;;;;;;1.65;0.73;;;;;;;10.08;69.24;96930.69;4979029;28;20064;-82
2021/05/23 03:16:10;;;;;;;1.73;0.88;;;;;;;9.92;69.41;96927.94;4994908;28;20121;-84
2021/05/23 03:18:37;;;;;;;2.38;0.75;;;;;;;10.04;69.28;96932.19;4995007;28;20507;-82
2021/05/23 03:21:02;;;;;;;2.55;0.60;;;;;;;9.85;69.85;96942.97;4995070;28;20034;-82
2021/05/23 03:23:29;;;;;;;1.38;0.95;;;;;;;10.13;68.99;96951.56;4984712;28;20037;-83
2021/05/23 03:25:55;;;;;;;1.13;0.60;;;;;;;10.15;69.16;96943.50;5011466;28;20033;-83
2021/05/23 03:28:22;;;;;;;2.15;0.80;;;;;;;10.16;69.01;96951.06;4991360;28;20389;-84
2021/05/23 03:30:49;;;;;;;1.30;1.10;;;;;;;10.12;69.51;96944.75;4994557;28;20030;-84
2021/05/23 03:33:15;;;;;;;2.05;1.02;;;;;;;10.08;69.11;96947.09;4975343;28;20026;-84
2021/05/23 03:35:41;;;;;;;1.58;1.02;;;;;;;10.10;68.75;96959.84;4994430;28;20511;-84
2021/05/23 03:38:07;;;;;;;2.35;0.82;;;;;;;10.10;68.97;96959.84;4978793;28;20021;-84
2021/05/23 03:40:36;;;;;;;1.50;1.00;;;;;;;9.98;69.09;96959.22;4994941;28;20040;-84
2021/05/23 03:43:05;;;;;;;2.83;0.80;;;;;;;9.74;69.21;96933.50;4991221;28;20030;-85
2021/05/23 03:45:32;;;;;;;2.58;0.85;;;;;;;9.75;69.00;96948.06;4992170;28;20443;-83
2021/05/23 03:47:58;;;;;;;7.53;1.27;;;;;;;9.87;68.64;96955.69;4991503;28;20163;-85
2021/05/23 03:50:24;;;;;;;3.10;0.95;;;;;;;9.75;69.19;96958.47;4992037;28;20123;-83
2021/05/23 03:52:54;;;;;;;2.03;1.10;;;;;;;9.66;69.31;96959.91;4978040;28;20036;-83
2021/05/23 03:55:21;;;;;;;2.40;1.00;;;;;;;9.81;69.74;96972.31;4961193;28;20029;-83
2021/05/23 03:57:48;;;;;;;1.77;1.00;;;;;;;9.63;70.83;96976.00;4995309;28;20029;-84
2021/05/23 04:00:16;;;;;;;4.47;1.30;;;;;;;9.81;69.53;96987.91;4978480;28;20388;-83
2021/05/23 04:02:47;;;;;;;1.92;1.05;;;;;;;9.85;69.68;96987.19;4975481;28;20038;-83
2021/05/23 04:05:14;;;;;;;1.85;1.10;;;;;;;9.83;69.97;96997.00;4987363;28;20557;-83
2021/05/23 04:07:41;;;;;;;2.50;0.90;;;;;;;9.92;70.37;96990.38;4981390;28;20036;-84
2021/05/23 04:10:09;;;;;;;2.85;1.20;;;;;;;9.86;69.65;96987.97;5015063;28;20025;-84
2021/05/23 04:12:40;;;;;;;1.08;0.68;;;;;;;10.00;69.41;96996.16;4979383;28;20424;-84
2021/05/23 04:15:07;;;;;;;1.73;1.05;;;;;;;10.03;68.76;96999.06;4990213;28;20472;-84
2021/05/23 04:17:33;;;;;;;3.05;0.70;;;;;;;10.08;69.03;97003.53;4977290;28;20026;-84
2021/05/23 04:19:59;;;;;;;3.47;1.33;;;;;;;9.95;69.66;97002.09;4982386;28;20392;-85
2021/05/23 04:22:25;;;;;;;2.15;0.90;;;;;;;10.00;69.52;97014.38;4982349;28;20026;-83
2021/05/23 04:24:50;;;;;;;2.38;0.98;;;;;;;9.97;69.91;97009.66;4998395;28;20042;-84
2021/05/23 04:27:16;;;;;;;3.28;1.52;;;;;;;9.97;69.34;97012.25;4978764;28;20034;-83
2021/05/23 04:29:42;;;;;;;1.90;0.77;;;;;;;9.90;69.46;97018.44;4992856;28;20073;-80
2021/05/23 04:32:07;;;;;;;2.53;0.85;;;;;;;10.04;68.96;97018.84;4995304;28;20052;-85
2021/05/23 04:34:36;;;;;;;3.63;0.90;;;;;;;9.88;69.51;97027.50;4982392;28;20030;-83
2021/05/23 04:37:03;;;;;;;3.78;1.48;;;;;;;9.96;69.81;97028.91;4982054;28;20120;-82
2021/05/23 04:39:32;;;;;;;3.25;1.15;;;;;;;9.91;69.67;97021.81;4978553;28;20037;-83
2021/05/23 04:41:58;;;;;;;1.88;0.80;;;;;;;10.06;69.34;97037.59;4982249;28;20032;-85
2021/05/23 04:44:23;;;;;;;2.00;1.05;;;;;;;10.06;69.26;97036.81;4984911;28;20120;-84
2021/05/23 04:46:50;;;;;;;2.05;0.80;;;;;;;10.10;68.84;97035.28;5018515;28;20038;-83
2021/05/23 04:49:18;;;;;;;2.55;0.95;;;;;;;10.17;68.99;97046.28;4985850;28;20423;-83
2021/05/23 04:51:44;;;;;;;5.00;1.17;;;;;;;10.09;69.16;97049.31;5001587;28;20087;-83
2021/05/23 04:54:09;;;;;;;1.52;0.70;;;;;;;10.13;69.17;97055.63;5001827;28;20033;-84
2021/05/23 04:56:35;;;;;;;3.75;0.75;;;;;;;10.17;68.95;97059.28;4978946;28;20042;-84
2021/05/23 04:59:00;;;;;;;2.72;0.95;;;;;;;10.16;69.54;97068.16;5001823;28;20037;-84
2021/05/23 05:01:26;;;;;;;2.83;1.10;;;;;;;10.27;68.96;97063.81;5018098;28;20037;-84
2021/05/23 05:03:51;;;;;;;2.05;1.10;;;;;;;10.17;69.39;97043.69;5001626;28;20060;-81
2021/05/23 05:06:16;;;;;;;4.25;1.30;;;;;;;10.16;69.79;97057.72;5001221;28;20056;-83
2021/05/23 05:08:42;;;;;;;3.92;1.27;;;;;;;10.20;68.86;97061.41;5035728;28;20029;-84
2021/05/23 05:11:07;;;;;;;2.85;0.90;;;;;;;10.32;68.87;97076.13;5001524;28;20044;-81
2021/05/23 05:13:32;;;;;;;3.10;1.52;;;;;;;10.26;68.80;97083.06;4981827;28;20104;-81
2021/05/23 05:15:58;;;;;;;1.80;0.88;;;;;;;10.21;68.50;97081.22;5010885;28;20033;-84
2021/05/23 05:18:23;;;;;;;1.70;0.95;;;;;;;10.23;69.01;97081.75;4994055;28;20029;-84
2021/05/23 05:20:49;;;;;;;3.72;0.90;;;;;;;10.25;69.10;97079.69;4983564;28;20123;-83
2021/05/23 05:23:14;;;;;;;2.22;1.10;;;;;;;10.33;69.31;97082.91;4986685;28;20053;-84
2021/05/23 05:25:39;;;;;;;2.00;1.30;;;;;;;10.29;68.72;97088.56;4980646;28;20033;-83
2021/05/23 05:28:05;;;;;;;2.55;0.90;;;;;;;10.37;68.45;97091.81;4987369;28;20030;-82
2021/05/23 05:30:30;;;;;;;2.00;0.93;;;;;;;10.30;69.19;97095.34;4988621;28;20030;-83
2021/05/23 05:32:56;;;;;;;2.00;1.13;;;;;;;10.30;68.31;97097.16;4998765;28;20467;-83
2021/05/23 05:35:21;;;;;;;3.22;1.30;;;;;;;10.18;69.57;97099.91;4978381;28;20025;-83
2021/05/23 05:37:47;;;;;;;3.40;1.20;;;;;;;10.37;68.97;97100.41;4991230;28;20071;-83
2021/05/23 05:40:13;;;;;;;2.03;1.08;;;;;;;10.37;69.01;97108.19;5016978;28;20041;-83
2021/05/23 05:42:39;;;;;;;2.58;1.40;;;;;;;10.44;69.16;97100.19;4984331;28;20064;-83
2021/05/23 05:45:05;;;;;;;5.05;1.65;;;;;;;10.44;68.84;97108.00;5000891;28;20061;-83
2021/05/23 05:47:30;;;;;;;3.10;1.02;;;;;;;10.21;69.12;97111.63;5000113;28;20145;-82
2021/05/23 05:49:56;;;;;;;3.28;1.60;;;;;;;10.40;68.68;97110.31;4984202;28;20576;-82
2021/05/23 05:52:21;;;;;;;3.65;1.50;;;;;;;10.40;69.02;97117.31;4982503;28;20088;-83
2021/05/23 05:54:47;;;;;;;2.28;1.42;;;;;;;10.48;68.54;97119.50;4984359;28;20034;-83
2021/05/23 05:57:12;;;;;;;1.90;1.42;;;;;;;10.54;68.71;97113.31;4993898;28;20022;-82
2021/05/23 05:59:38;;;;;;;2.65;1.02;;;;;;;10.62;67.92;97112.84;4993237;28;20080;-83
2021/05/23 06:02:04;;;;;;;2.58;1.50;;;;;;;10.60;68.81;97112.31;5017045;28;20478;-82
2021/05/23 06:04:29;;;;;;;3.83;2.05;;;;;;;10.67;69.30;97110.31;4983599;28;20037;-82
2021/05/23 06:06:55;;;;;;;2.65;1.40;;;;;;;10.67;68.58;97112.13;4993494;28;20038;-81
2021/05/23 06:09:20;;;;;;;2.78;1.33;;;;;;;10.77;68.42;97127.06;4980257;28;20034;-82
2021/05/23 06:11:45;;;;;;;5.18;1.50;;;;;;;10.77;68.58;97122.66;4996243;28;20495;-81
2021/05/23 06:14:11;;;;;;;2.78;1.60;;;;;;;10.95;67.68;97121.53;4988886;28;20473;-82
2021/05/23 06:16:36;;;;;;;3.28;1.73;;;;;;;11.02;67.79;97122.09;5018037;28;20029;-82
2021/05/23 06:19:02;;;;;;;2.55;1.42;;;;;;;11.19;67.51;97144.63;5000295;28;20033;-82
2021/05/23 06:21:28;;;;;;;3.53;2.03;;;;;;;11.29;66.89;97136.88;4973883;28;20087;-81
2021/05/23 06:23:53;;;;;;;3.85;1.83;;;;;;;11.22;68.43;97141.53;4989809;28;20029;-80
2021/05/23 06:26:19;;;;;;;3.55;1.92;;;;;;;11.44;67.46;97147.41;4978782;28;20156;-81
2021/05/23 06:28:44;;;;;;;2.55;1.63;;;;;;;11.36;67.36;97149.69;4996639;28;20025;-81
2021/05/23 06:31:10;;;;;;;2.10;1.30;;;;;;;11.50;66.28;97139.63;4999334;28;20033;-81
2021/05/23 06:33:36;;;;;;;1.52;1.27;;;;;;;11.57;64.87;97145.44;4996682;28;20025;-82
2021/05/23 06:36:01;;;;;;;5.18;1.88;;;;;;;11.54;66.46;97149.31;5017129;28;20037;-82
2021/05/23 06:38:26;;;;;;;2.83;1.60;;;;;;;11.61;65.78;97154.31;5018759;28;20049;-82
2021/05/23 06:40:52;;;;;;;4.53;1.40;;;;;;;11.54;65.55;97151.94;5008955;28;20559;-81
2021/05/23 06:43:17;;;;;;;2.90;1.60;;;;;;;11.53;67.01;97158.19;4981837;28;20128;-81
2021/05/23 06:45:43;;;;;;;2.30;1.45;;;;;;;11.55;65.97;97171.75;4979197;28;20036;-81
2021/05/23 06:48:09;;;;;;;2.30;1.50;;;;;;;11.54;66.37;97159.75;4979521;28;20033;-81
2021/05/23 06:50:35;;;;;;;2.13;1.52;;;;;;;11.68;66.36;97170.53;4982288;28;20040;-81
2021/05/23 06:53:01;;;;;;;1.40;1.30;;;;;;;11.49;65.76;97164.94;4995501;28;20537;-81
2021/05/23 06:55:26;;;;;;;1.92;1.50;;;;;;;11.62;65.47;97161.91;4996673;28;20136;-81
2021/05/23 06:57:51;;;;;;;1.40;1.30;;;;;;;11.66;65.61;97180.44;4974495;28;20037;-81
2021/05/23 07:00:19;;;;;;;1.90;1.40;;;;;;;11.66;66.63;97180.44;4995423;28;20034;-81
2021/05/23 07:02:47;;;;;;;2.00;1.02;;;;;;;11.69;65.00;97185.16;5011919;28;20116;-80
2021/05/23 07:05:12;;;;;;;2.22;1.20;;;;;;;11.61;66.28;97183.00;4975547;28;20528;-81
2021/05/23 07:07:40;;;;;;;4.53;1.40;;;;;;;11.56;66.78;97162.09;4994464;28;20053;-82
2021/05/23 07:10:06;;;;;;;3.20;1.45;;;;;;;11.59;66.57;97167.59;5011396;28;20445;-81
2021/05/23 07:12:32;;;;;;;2.72;1.40;;;;;;;11.72;66.15;97178.63;5011682;28;20052;-83
2021/05/23 07:14:57;;;;;;;3.70;1.67;;;;;;;11.76;65.92;97175.28;4995302;28;20072;-81
2021/05/23 07:17:22;;;;;;;3.72;1.42;;;;;;;11.87;66.40;97183.94;4983751;28;20030;-82
2021/05/23 07:19:48;;;;;;;2.80;1.95;;;;;;;11.93;66.28;97192.63;4977486;28;20037;-81
2021/05/23 07:22:14;;;;;;;3.92;1.88;;;;;;;11.72;66.83;97189.06;4979147;28;20033;-81
2021/05/23 07:24:39;;;;;;;5.88;2.08;;;;;;;11.91;65.87;97192.09;4994761;28;20416;-80
2021/05/23 07:27:05;;;;;;;1.70;1.48;;;;;;;11.92;65.46;97196.28;4978395;28;20033;-80
2021/05/23 07:29:31;;;;;;;5.00;1.73;;;;;;;11.66;66.40;97195.31;4995217;28;20120;-81
2021/05/23 07:31:56;;;;;;;2.50;2.30;;;;;;;11.85;66.67;97201.69;5010976;28;20488;-81
2021/05/23 07:34:22;;;;;;;3.10;1.48;;;;;;;11.93;65.40;97203.06;4995081;28;20084;-81
2021/05/23 07:36:47;;;;;;;2.30;1.52;;;;;;;11.75;66.16;97191.97;5009928;28;20033;-81
2021/05/23 07:39:12;;;;;;;2.95;2.42;;;;;;;11.96;64.95;97210.38;4981573;28;20030;-81
2021/05/23 07:41:38;;;;;;;2.13;1.52;;;;;;;11.93;65.26;97213.50;4994728;28;20044;-80
2021/05/23 07:44:04;;;;;;;2.55;1.40;;;;;;;12.04;64.42;97225.56;4994853;28;20041;-80
2021/05/23 07:46:29;;;;;;;2.45;1.70;;;;;;;11.90;66.73;97227.81;4991855;28;20036;-82
2021/05/23 07:48:55;;;;;;;4.53;1.67;;;;;;;11.89;67.95;97212.41;4994828;28;20326;-82
2021/05/23 07:51:20;;;;;;;3.03;1.60;;;;;;;11.92;67.89;97202.28;4976055;28;20430;-83
2021/05/23 07:53:46;;;;;;;3.95;3.17;;;;;;;12.12;67.99;97219.88;4994995;28;20040;-82
2021/05/23 07:56:14;;;;;;;2.20;1.73;;;;;;;12.31;67.77;97225.44;4980464;28;20483;-82
2021/05/23 07:58:39;;;;;;;2.33;2.13;;;;;;;12.67;68.18;97209.94;5020663;28;20116;-82
2021/05/23 08:01:04;;;;;;;2.03;1.27;;;;;;;12.91;67.09;97223.31;4978758;28;20124;-82
2021/05/23 08:03:30;;;;;;;2.30;1.38;;;;;;;13.35;67.97;97214.28;5013592;28;20459;-82
2021/05/23 08:05:55;;;;;;;1.65;0.98;;;;;;;13.75;65.70;97219.75;4982448;28;20074;-81
2021/05/23 08:08:21;;;;;;;1.88;1.10;;;;;;;13.85;64.02;97227.59;5012071;28;20542;-81
2021/05/23 08:10:47;;;;;;;2.58;1.40;;;;;;;14.08;63.29;97223.63;4994790;28;20064;-80
2021/05/23 08:13:13;;;;;;;3.63;1.25;;;;;;;14.22;60.84;97223.84;4994531;28;20383;-82
2021/05/23 08:15:38;;;;;;;4.00;1.58;;;;;;;14.56;61.72;97229.22;4974661;28;20037;-80
2021/05/23 08:18:04;;;;;;;1.40;0.90;;;;;;;14.68;61.89;97228.19;4985535;28;20026;-81
2021/05/23 08:20:29;;;;;;;3.35;0.93;;;;;;;14.82;60.36;97233.63;4977759;28;20526;-81
2021/05/23 08:22:55;;;;;;;2.20;0.80;;;;;;;14.91;57.32;97227.53;4998464;28;20091;-81
2021/05/23 08:25:20;;;;;;;2.63;1.00;;;;;;;14.50;59.06;97232.16;5010552;28;20071;-81
2021/05/23 08:27:46;;;;;;;3.53;1.00;;;;;;;13.92;60.62;97243.03;4997911;28;20061;-81
2021/05/23 08:30:12;;;;;;;1.65;0.70;;;;;;;13.79;61.85;97239.13;4998098;28;20033;-80
2021/05/23 08:32:38;;;;;;;1.45;0.70;;;;;;;13.63;62.59;97241.75;4997692;28;20045;-81
2021/05/23 08:35:09;;;;;;;4.97;0.90;;;;;;;13.59;62.64;97245.13;4998178;28;20465;-80
2021/05/23 08:37:36;;;;;;;2.67;1.20;;;;;;;13.74;63.45;97247.75;4987007;28;20045;-80
2021/05/23 08:40:05;;;;;;;1.38;0.80;;;;;;;14.12;62.05;97234.34;4979883;28;20053;-82
2021/05/23 08:42:33;;;;;;;1.42;0.90;;;;;;;14.55;57.73;97232.94;4998969;28;20032;-80
2021/05/23 08:44:59;;;;;;;2.55;0.95;;;;;;;14.65;58.60;97231.34;5014199;28;20029;-80
2021/05/23 08:47:25;;;;;;;1.42;0.60;;;;;;;14.95;58.09;97240.91;4997552;28;20495;-80
2021/05/23 08:49:51;;;;;;;3.28;1.02;;;;;;;15.07;58.45;97241.34;4979598;28;20077;-80
2021/05/23 08:52:20;;;;;;;1.80;0.70;;;;;;;15.19;57.56;97245.47;5007553;28;20030;-80
2021/05/23 08:54:48;;;;;;;2.53;0.90;;;;;;;15.34;57.50;97238.28;5012251;28;20055;-80
2021/05/23 08:57:23;;;;;;;1.15;0.65;;;;;;;15.43;55.18;97230.63;4997022;28;20033;-80
2021/05/23 08:59:51;;;;;;;2.13;0.90;;;;;;;15.59;55.85;97238.38;5010774;28;20240;-81
2021/05/23 09:02:16;;;;;;;1.88;0.60;;;;;;;15.74;56.45;97248.75;4997618;28;20419;-80
2021/05/23 09:04:49;;;;;;;2.22;0.75;;;;;;;16.04;54.09;97233.78;4981300;28;20032;-79
2021/05/23 09:07:15;;;;;;;3.13;0.75;;;;;;;16.44;53.83;97245.72;4997053;28;20030;-79
2021/05/23 09:09:45;;;;;;;1.77;0.90;;;;;;;15.88;54.39;97231.31;4980664;28;20264;-80
2021/05/23 09:12:14;;;;;;;3.63;0.90;;;;;;;15.85;54.08;97246.84;4996799;28;20077;-79
2021/05/23 09:14:43;;;;;;;6.90;4.18;;;;;;;15.67;53.86;97256.16;4979710;28;20108;-79
2021/05/23 09:17:25;;;;;;;1.60;1.00;;;;;;;15.38;57.55;97251.63;5009623;28;20152;-79
2021/05/23 09:19:51;;;;;;;2.28;0.52;;;;;;;15.40;55.44;97252.16;5012744;28;20473;-79
2021/05/23 09:22:23;;;;;;;2.47;0.65;;;;;;;15.05;57.12;97256.56;4997442;28;20112;-79
2021/05/23 09:24:53;;;;;;;2.25;0.80;;;;;;;15.13;57.54;97269.13;4993749;28;20033;-79
2021/05/23 09:27:21;;;;;;;2.22;0.50;;;;;;;15.09;55.08;97252.34;5029993;28;20087;-79
2021/05/23 09:29:46;;;;;;;1.45;0.60;;;;;;;15.48;54.85;97262.06;4993452;28;20480;-79
2021/05/23 09:32:19;;;;;;;2.33;0.60;;;;;;;15.69;55.87;97261.91;4994400;28;20029;-80
2021/05/23 09:34:47;;;;;;;2.80;0.98;;;;;;;16.04;53.31;97258.22;5020239;28;20549;-79
2021/05/23 09:37:14;;;;;;;1.23;0.50;;;;;;;16.41;51.55;97264.66;4996840;28;20049;-79
2021/05/23 09:39:41;;;;;;;2.42;0.57;;;;;;;16.05;54.38;97269.50;4996970;28;20103;-80
2021/05/23 09:42:11;;;;;;;0.60;0.50;;;;;;;16.45;51.16;97265.69;5013484;28;20357;-79
2021/05/23 09:44:36;;;;;;;2.40;0.70;;;;;;;16.59;51.04;97252.66;5013453;28;20032;-80
2021/05/23 09:47:11;;;;;;;2.70;0.50;;;;;;;16.14;51.61;97246.81;5000601;28;20063;-79
2021/05/23 09:49:50;;;;;;;2.58;0.52;;;;;;;16.21;52.46;97268.31;4996978;28;20064;-80
2021/05/23 09:52:32;;;;;;;0.88;0.45;;;;;;;16.01;52.32;97269.28;4997478;28;20516;-79
2021/05/23 09:54:59;;;;;;;1.85;0.60;;;;;;;15.96;53.54;97271.19;5011674;28;20033;-78
2021/05/23 09:57:25;;;;;;;1.17;0.40;;;;;;;15.78;51.36;97273.44;4997023;28;20032;-79
2021/05/23 10:00:04;;;;;;;1.92;1.05;;;;;;;15.57;53.02;97277.22;4980638;28;20036;-79
2021/05/23 10:02:30;;;;;;;2.38;0.40;;;;;;;15.72;53.60;97269.25;5016164;28;20052;-79
2021/05/23 10:05:02;;;;;;;1.85;0.50;;;;;;;16.05;55.05;97272.13;5016983;28;20025;-79
2021/05/23 10:07:31;;;;;;;2.22;0.50;;;;;;;16.37;52.12;97270.78;4996435;28;20076;-79
2021/05/23 10:09:56;;;;;;;0.65;0.40;;;;;;;16.44;50.14;97277.25;4996682;28;20399;-80
2021/05/23 10:12:22;;;;;;;1.25;0.45;;;;;;;16.35;51.17;97284.19;4993705;28;20509;-79
2021/05/23 10:14:47;;;;;;;1.77;0.40;;;;;;;16.60;48.69;97277.88;5009260;28;20033;-79
2021/05/23 10:17:14;;;;;;;2.08;0.52;;;;;;;16.69;47.96;97272.78;4980432;28;20029;-79
2021/05/23 10:19:40;;;;;;;1.52;0.65;;;;;;;16.78;49.07;97284.25;4996507;28;20392;-79
2021/05/23 10:22:07;;;;;;;1.60;0.40;;;;;;;16.57;49.41;97270.56;4996941;28;20032;-79
2021/05/23 10:24:36;;;;;;;1.85;0.35;;;;;;;16.28;50.71;97283.75;5011741;28;20037;-79
2021/05/23 10:27:07;;;;;;;1.48;0.40;;;;;;;16.54;50.99;97272.97;4995863;28;20029;-79
2021/05/23 10:29:36;;;;;;;2.58;0.45;;;;;;;17.18;50.07;97249.81;5001622;28;20033;-78
2021/05/23 10:32:07;;;;;;;2.25;0.40;;;;;;;17.44;46.87;97259.97;5002298;28;20514;-79
2021/05/23 10:34:41;;;;;;;0.77;0.73;;;;;;;17.47;49.69;97259.41;5018682;28;20044;-78
2021/05/23 10:37:06;;;;;;;2.28;0.50;;;;;;;18.13;46.78;97268.13;4988448;28;20025;-78
2021/05/23 10:39:38;;;;;;;2.40;0.50;;;;;;;18.67;47.43;97273.69;4996097;28;20389;-79
2021/05/23 10:42:04;;;;;;;1.00;0.40;;;;;;;18.89;46.62;97297.53;5000824;28;20033;-77
2021/05/23 10:44:48;;;;;;;1.02;0.35;;;;;;;18.97;43.14;97292.63;5018272;28;20396;-77
2021/05/23 10:47:22;;;;;;;3.20;0.60;;;;;;;19.17;44.63;97297.47;4995802;28;20385;-78
2021/05/23 10:50:00;;;;;;;1.30;0.40;;;;;;;18.96;42.24;97293.72;5012397;28;20033;-79
2021/05/23 10:52:28;;;;;;;0.80;0.40;;;;;;;18.39;44.36;97278.19;4995132;28;20069;-79
2021/05/23 10:55:10;;;;;;;1.73;0.85;;;;;;;18.65;45.43;97295.06;5001003;28;20024;-78
2021/05/23 10:57:49;;;;;;;2.20;0.50;;;;;;;18.17;47.55;97297.28;4984059;28;20044;-78
2021/05/23 11:00:35;;;;;;;1.20;0.43;;;;;;;18.62;47.13;97292.25;4979704;28;20025;-79
2021/05/23 11:03:15;;;;;;;2.22;0.45;;;;;;;18.80;43.67;97295.84;5020561;28;20112;-78
2021/05/23 11:05:41;;;;;;;0.60;0.50;;;;;;;18.83;43.80;97295.28;4987298;28;20025;-79
2021/05/23 11:08:08;;;;;;;0.85;0.50;;;;;;;18.78;46.77;97290.88;5002918;28;20021;-79
2021/05/23 11:10:41;;;;;;;1.58;0.45;;;;;;;17.83;45.42;97290.44;5001306;28;20116;-78
2021/05/23 11:13:08;;;;;;;0.90;0.47;;;;;;;17.67;47.32;97277.53;4975342;28;20128;-78
2021/05/23 11:15:47;;;;;;;1.23;0.63;;;;;;;17.63;45.93;97296.81;5009107;28;20032;-79
2021/05/23 11:18:25;;;;;;;1.83;0.32;;;;;;;17.06;49.43;97292.34;4975423;28;20036;-78
2021/05/23 11:21:13;;;;;;;1.02;0.40;;;;;;;16.61;51.28;97302.31;4993152;28;20132;-79
2021/05/23 11:23:52;;;;;;;1.45;0.35;;;;;;;16.43;49.56;97319.59;4995202;28;20400;-80
2021/05/23 11:26:18;;;;;;;2.00;0.40;;;;;;;16.40;49.74;97302.53;5000727;28;20040;-79
2021/05/23 11:28:49;;;;;;;3.22;0.50;;;;;;;16.30;52.03;97313.16;4995330;28;20057;-80
2021/05/23 11:31:25;;;;;;;1.77;0.38;;;;;;;16.32;50.28;97312.88;5008176;28;20037;-79
2021/05/23 11:33:50;;;;;;;2.05;0.60;;;;;;;16.62;49.93;97303.88;4979212;28;20033;-80
2021/05/23 11:36:20;;;;;;;2.60;0.45;;;;;;;16.52;48.33;97286.38;5007616;28;20419;-79